createdAt,value
2017-11-20T00:02:26.879Z,93.80
2017-11-20T00:04:54.999Z,94.00
2017-11-20T00:07:23.152Z,94.10
2017-11-20T00:09:51.299Z,94.00
2017-11-20T00:12:19.454Z,94.00
2017-11-20T00:14:48.047Z,93.80
2017-11-20T00:17:16.210Z,93.60
2017-11-20T00:19:44.339Z,93.80
2017-11-20T00:22:14.485Z,94.00
2017-11-20T00:24:43.335Z,93.80
2017-11-20T00:27:11.634Z,93.70
2017-11-20T00:29:39.785Z,93.90
2017-11-20T00:32:07.923Z,93.90
2017-11-20T00:34:36.078Z,93.90
2017-11-20T00:37:04.956Z,94.00
2017-11-20T00:39:33.749Z,93.80
2017-11-20T00:42:01.874Z,93.70
2017-11-20T00:44:30.155Z,93.60
2017-11-20T00:46:58.301Z,93.00
2017-11-20T00:49:26.422Z,92.70
2017-11-20T00:51:54.558Z,92.80
2017-11-20T00:54:22.964Z,92.60
2017-11-20T00:56:51.078Z,92.40
2017-11-20T00:59:19.700Z,92.40
2017-11-20T01:01:47.846Z,92.60
2017-11-20T01:04:15.974Z,92.80
2017-11-20T01:06:44.106Z,92.90
2017-11-20T01:09:12.224Z,93.10
2017-11-20T01:11:40.361Z,93.30
2017-11-20T01:14:11.334Z,93.50
2017-11-20T01:16:39.467Z,93.60
2017-11-20T01:19:07.603Z,94.90
2017-11-20T01:21:35.719Z,94.60
2017-11-20T01:24:04.131Z,95.40
2017-11-20T01:26:32.267Z,96.20
2017-11-20T01:29:00.413Z,96.40
2017-11-20T01:31:29.664Z,97.00
2017-11-20T01:33:57.828Z,96.90
2017-11-20T01:36:25.959Z,97.30
2017-11-20T01:38:54.090Z,97.10
2017-11-20T01:41:22.243Z,97.00
2017-11-20T01:43:50.842Z,96.90
2017-11-20T01:46:18.955Z,96.90
2017-11-20T01:48:47.083Z,97.00
2017-11-20T01:51:15.205Z,96.90
2017-11-20T01:53:43.378Z,96.80
2017-11-20T01:56:12.430Z,97.90
2017-11-20T01:58:40.704Z,97.70
2017-11-20T02:01:09.096Z,97.20
2017-11-20T02:03:37.707Z,97.50
2017-11-20T02:06:05.895Z,97.40
2017-11-20T02:08:34.789Z,97.20
2017-11-20T02:11:03.718Z,97.10
2017-11-20T02:13:31.844Z,97.00
2017-11-20T02:16:00.025Z,97.00
2017-11-20T02:18:29.242Z,97.20
2017-11-20T02:20:57.473Z,97.10
2017-11-20T02:23:25.643Z,97.10
2017-11-20T02:25:53.956Z,97.00
2017-11-20T02:28:22.900Z,97.00
2017-11-20T02:30:51.123Z,96.80
2017-11-20T02:33:20.490Z,96.70
2017-11-20T02:35:49.735Z,96.60
2017-11-20T02:38:17.910Z,96.90
2017-11-20T02:40:46.142Z,97.00
2017-11-20T02:43:14.844Z,97.10
2017-11-20T02:45:43.035Z,97.50
2017-11-20T02:48:11.995Z,98.00
2017-11-20T02:50:40.206Z,97.90
2017-11-20T02:53:09.135Z,98.00
2017-11-20T02:55:37.332Z,97.80
2017-11-20T02:58:05.545Z,98.10
2017-11-20T03:00:33.755Z,98.30
2017-11-20T03:03:01.896Z,98.30
2017-11-20T03:05:30.089Z,98.40
2017-11-20T03:07:58.241Z,98.30
2017-11-20T03:10:26.854Z,99.10
2017-11-20T03:12:55.029Z,98.50
2017-11-20T03:15:23.214Z,98.50
2017-11-20T03:17:51.346Z,98.40
2017-11-20T03:20:19.540Z,98.30
2017-11-20T03:22:48.017Z,97.90
2017-11-20T03:25:16.182Z,97.70
2017-11-20T03:27:44.304Z,97.80
2017-11-20T03:30:12.489Z,98.10
2017-11-20T03:32:40.666Z,98.40
2017-11-20T03:35:08.891Z,98.70
2017-11-20T03:37:37.034Z,98.70
2017-11-20T03:40:05.169Z,98.80
2017-11-20T03:42:33.423Z,98.70
2017-11-20T03:45:01.670Z,98.60
2017-11-20T03:47:31.003Z,98.60
2017-11-20T03:49:59.200Z,98.60
2017-11-20T03:52:27.347Z,98.60
2017-11-20T03:54:55.474Z,98.50
2017-11-20T03:57:25.112Z,97.90
2017-11-20T03:59:53.987Z,97.90
2017-11-20T04:02:22.870Z,97.70
2017-11-20T04:04:51.002Z,97.50
2017-11-20T04:07:19.666Z,97.40
2017-11-20T04:09:47.841Z,97.10
2017-11-20T04:12:15.956Z,96.90
2017-11-20T04:14:44.072Z,96.80
2017-11-20T04:17:12.199Z,96.80
2017-11-20T04:19:40.354Z,96.50
2017-11-20T04:22:08.510Z,96.80
2017-11-20T04:24:36.648Z,97.90
2017-11-20T04:27:05.109Z,97.20
2017-11-20T04:29:34.777Z,97.20
2017-11-20T04:32:02.955Z,97.00
2017-11-20T04:34:31.125Z,97.30
2017-11-20T04:36:59.497Z,97.30
2017-11-20T04:39:27.679Z,97.30
2017-11-20T04:41:55.847Z,97.30
2017-11-20T04:44:23.987Z,97.40
2017-11-20T04:46:53.236Z,97.00
2017-11-20T04:49:21.415Z,96.90
2017-11-20T04:51:49.618Z,96.60
2017-11-20T04:54:17.974Z,97.00
2017-11-20T04:56:46.154Z,96.40
2017-11-20T04:59:14.348Z,96.30
2017-11-20T05:01:42.462Z,96.10
2017-11-20T05:04:10.617Z,96.50
2017-11-20T05:06:39.482Z,96.80
2017-11-20T05:09:07.622Z,96.80
2017-11-20T05:11:35.774Z,96.90
2017-11-20T05:14:03.960Z,97.00
2017-11-20T05:16:32.101Z,97.00
2017-11-20T05:19:00.218Z,97.00
2017-11-20T05:21:28.771Z,97.00
2017-11-20T05:23:57.666Z,97.20
2017-11-20T05:26:25.789Z,97.10
2017-11-20T05:28:53.933Z,97.10
2017-11-20T05:31:22.172Z,97.30
2017-11-20T05:33:50.344Z,97.20
2017-11-20T05:36:19.209Z,97.80
2017-11-20T05:38:47.498Z,97.40
2017-11-20T05:41:15.623Z,97.50
2017-11-20T05:43:43.793Z,97.60
2017-11-20T05:46:11.937Z,97.80
2017-11-20T05:48:41.138Z,97.90
2017-11-20T05:51:09.309Z,97.80
2017-11-20T05:53:38.214Z,97.80
2017-11-20T05:56:07.087Z,97.90
2017-11-20T05:58:35.978Z,98.00
2017-11-20T06:01:04.878Z,98.10
2017-11-20T06:03:33.758Z,98.30
2017-11-20T06:06:02.650Z,98.40
2017-11-20T06:08:30.791Z,98.40
2017-11-20T06:10:59.406Z,98.50
2017-11-20T06:13:27.526Z,98.60
2017-11-20T06:15:55.677Z,98.50
2017-11-20T06:18:23.816Z,98.90
2017-11-20T06:20:53.456Z,98.90
2017-11-20T06:23:21.942Z,98.80
2017-11-20T06:25:50.078Z,99.00
2017-11-20T06:28:18.221Z,98.90
2017-11-20T06:30:46.361Z,98.90
2017-11-20T06:33:14.462Z,99.00
2017-11-20T06:35:42.626Z,99.00
2017-11-20T06:38:11.186Z,99.30
2017-11-20T06:40:40.486Z,99.60
2017-11-20T06:43:09.362Z,99.40
2017-11-20T06:45:37.522Z,99.40
2017-11-20T06:48:05.651Z,99.40
2017-11-20T06:50:33.802Z,99.10
2017-11-20T06:53:01.934Z,98.90
2017-11-20T06:55:30.789Z,98.70
2017-11-20T06:57:58.928Z,98.70
2017-11-20T07:00:27.352Z,98.60
2017-11-20T07:02:56.041Z,99.10
2017-11-20T07:05:24.250Z,99.50
2017-11-20T07:07:52.362Z,99.80
2017-11-20T07:10:20.564Z,99.90
2017-11-20T07:12:48.705Z,99.90
2017-11-20T07:15:16.835Z,99.80
2017-11-20T07:17:44.988Z,99.70
2017-11-20T07:20:13.131Z,99.80
2017-11-20T07:22:41.290Z,99.90
2017-11-20T07:25:23.452Z,99.90
2017-11-20T07:28:02.227Z,99.90
2017-11-20T07:30:45.918Z,99.90
2017-11-20T07:33:14.078Z,99.90
2017-11-20T07:35:47.581Z,99.90
2017-11-20T07:38:19.667Z,99.90
2017-11-20T07:41:04.949Z,99.90
2017-11-20T07:43:33.243Z,99.90
2017-11-20T07:46:01.393Z,99.90
2017-11-20T07:48:30.047Z,99.90
2017-11-20T07:50:58.275Z,99.90
2017-11-20T07:53:27.154Z,99.90
2017-11-20T07:55:56.325Z,99.90
2017-11-20T07:58:24.478Z,99.90
2017-11-20T08:00:52.835Z,99.90
2017-11-20T08:03:20.974Z,99.90
2017-11-20T08:05:49.838Z,99.90
2017-11-20T08:08:18.066Z,99.90
2017-11-20T08:10:46.510Z,99.90
2017-11-20T08:13:14.670Z,99.70
2017-11-20T08:15:42.818Z,99.60
2017-11-20T08:18:11.075Z,99.40
2017-11-20T08:20:39.195Z,99.20
2017-11-20T08:23:07.338Z,99.20
2017-11-20T08:25:35.471Z,99.10
2017-11-20T08:28:03.610Z,99.00
2017-11-20T08:30:31.763Z,98.90
2017-11-20T08:32:59.891Z,98.70
2017-11-20T08:35:28.605Z,98.60
2017-11-20T08:37:56.738Z,98.50
2017-11-20T08:40:24.886Z,98.50
2017-11-20T08:42:52.999Z,98.50
2017-11-20T08:45:21.146Z,98.50
2017-11-20T08:47:49.381Z,98.40
2017-11-20T08:50:17.566Z,98.60
2017-11-20T08:52:45.732Z,98.60
2017-11-20T08:55:13.890Z,98.50
2017-11-20T08:57:42.167Z,98.50
2017-11-20T09:00:10.658Z,98.70
2017-11-20T09:02:38.860Z,98.60
2017-11-20T09:05:07.032Z,98.50
2017-11-20T09:07:35.228Z,98.50
2017-11-20T09:10:03.422Z,98.50
2017-11-20T09:12:32.295Z,98.80
2017-11-20T09:15:00.443Z,98.80
2017-11-20T09:17:28.660Z,98.70
2017-11-20T09:19:56.816Z,98.70
2017-11-20T09:22:25.448Z,98.60
2017-11-20T09:24:53.606Z,98.60
2017-11-20T09:27:21.754Z,98.60
2017-11-20T09:29:49.893Z,98.60
2017-11-20T09:32:18.047Z,98.90
2017-11-20T09:34:46.244Z,98.80
2017-11-20T09:37:14.690Z,98.60
2017-11-20T09:39:42.826Z,98.40
2017-11-20T09:42:11.234Z,98.40
2017-11-20T09:44:40.123Z,97.70
2017-11-20T09:47:09.100Z,97.70
2017-11-20T09:49:38.043Z,97.50
2017-11-20T09:52:06.339Z,97.40
2017-11-20T09:54:34.575Z,97.50
2017-11-20T09:57:03.218Z,97.50
2017-11-20T09:59:31.522Z,97.50
2017-11-20T10:02:00.791Z,97.40
2017-11-20T10:04:28.997Z,97.30
2017-11-20T10:06:57.946Z,97.60
2017-11-20T10:09:26.304Z,97.10
2017-11-20T10:11:54.478Z,97.00
2017-11-20T10:14:22.717Z,97.00
2017-11-20T10:16:51.634Z,96.70
2017-11-20T10:19:19.813Z,96.70
2017-11-20T10:21:47.990Z,96.80
2017-11-20T10:24:16.205Z,96.70
2017-11-20T10:26:44.876Z,96.80
2017-11-20T10:29:13.082Z,96.60
2017-11-20T10:31:42.784Z,96.50
2017-11-20T10:34:10.963Z,96.50
2017-11-20T10:36:39.150Z,96.60
2017-11-20T10:39:08.136Z,96.40
2017-11-20T10:41:36.361Z,96.90
2017-11-20T10:44:04.917Z,96.30
2017-11-20T10:46:33.894Z,96.40
2017-11-20T10:49:02.047Z,96.30
2017-11-20T10:51:30.250Z,96.60
2017-11-20T10:53:58.449Z,96.50
2017-11-20T10:56:26.827Z,96.30
2017-11-20T10:58:55.032Z,96.00
2017-11-20T11:01:23.273Z,95.80
2017-11-20T11:03:51.483Z,95.90
2017-11-20T11:06:19.694Z,95.70
2017-11-20T11:08:48.276Z,95.50
2017-11-20T11:11:16.459Z,95.20
2017-11-20T11:13:44.796Z,95.20
2017-11-20T11:16:13.036Z,95.10
2017-11-20T11:18:41.244Z,95.40
2017-11-20T11:21:09.497Z,95.30
2017-11-20T11:23:37.670Z,95.00
2017-11-20T11:26:06.629Z,95.00
2017-11-20T11:28:34.877Z,95.00
2017-11-20T11:31:03.447Z,94.90
2017-11-20T11:33:31.658Z,94.80
2017-11-20T11:36:00.947Z,95.50
2017-11-20T11:38:29.210Z,94.70
2017-11-20T11:40:57.726Z,94.50
2017-11-20T11:43:26.070Z,94.10
2017-11-20T11:45:54.331Z,94.20
2017-11-20T11:48:22.579Z,94.30
2017-11-20T11:50:50.824Z,94.30
2017-11-20T11:53:19.027Z,94.70
2017-11-20T11:55:47.603Z,94.60
2017-11-20T11:58:15.828Z,94.50
2017-11-20T12:00:44.066Z,94.60
2017-11-20T12:03:12.258Z,94.90
2017-11-20T12:05:40.535Z,95.00
2017-11-20T12:08:08.789Z,95.20
2017-11-20T12:10:37.030Z,95.10
2017-11-20T12:13:05.252Z,95.20
2017-11-20T12:15:33.488Z,95.20
2017-11-20T12:18:02.070Z,95.30
2017-11-20T12:20:30.287Z,95.00
2017-11-20T12:22:58.495Z,94.80
2017-11-20T12:25:26.750Z,94.50
2017-11-20T12:27:54.962Z,94.00
2017-11-20T12:30:23.151Z,94.00
2017-11-20T12:32:51.382Z,94.50
2017-11-20T12:35:20.188Z,94.60
2017-11-20T12:37:48.402Z,94.80
2017-11-20T12:40:16.583Z,94.90
2017-11-20T12:42:45.995Z,93.90
2017-11-20T12:45:14.197Z,93.90
2017-11-20T12:47:42.458Z,93.70
2017-11-20T12:50:10.662Z,93.50
2017-11-20T12:52:38.889Z,93.70
2017-11-20T12:55:07.399Z,94.00
2017-11-20T12:57:35.633Z,94.00
2017-11-20T13:00:03.849Z,93.70
2017-11-20T13:02:32.082Z,93.50
2017-11-20T13:05:00.547Z,93.30
2017-11-20T13:07:28.738Z,93.60
2017-11-20T13:09:56.987Z,93.90
2017-11-20T13:12:25.214Z,94.20
2017-11-20T13:14:53.475Z,94.40
2017-11-20T13:17:21.718Z,94.50
2017-11-20T13:19:49.921Z,94.60
2017-11-20T13:22:18.144Z,94.70
2017-11-20T13:24:46.775Z,94.30
2017-11-20T13:27:15.024Z,94.60
2017-11-20T13:29:43.314Z,94.70
2017-11-20T13:32:11.552Z,95.00
2017-11-20T13:34:39.803Z,95.00
2017-11-20T13:37:08.763Z,94.70
2017-11-20T13:39:37.613Z,94.70
2017-11-20T13:42:05.832Z,94.90
2017-11-20T13:44:34.073Z,94.90
2017-11-20T13:47:02.394Z,95.30
2017-11-20T13:49:30.638Z,95.50
2017-11-20T13:51:58.894Z,95.50
2017-11-20T13:54:27.142Z,95.30
2017-11-20T13:56:55.438Z,95.20
2017-11-20T13:59:23.614Z,95.40
2017-11-20T14:01:52.349Z,95.70
2017-11-20T14:04:20.620Z,95.90
2017-11-20T14:06:48.998Z,96.10
2017-11-20T14:09:17.469Z,96.40
2017-11-20T14:11:45.694Z,96.50
2017-11-20T14:14:14.721Z,95.60
2017-11-20T14:16:42.993Z,95.60
2017-11-20T14:19:11.222Z,95.50
2017-11-20T14:21:40.873Z,95.40
2017-11-20T14:24:09.112Z,95.60
2017-11-20T14:26:37.318Z,95.70
2017-11-20T14:29:05.502Z,95.60
2017-11-20T14:31:33.736Z,95.40
2017-11-20T14:34:02.032Z,94.90
2017-11-20T14:36:30.326Z,94.90
2017-11-20T14:38:58.574Z,94.60
2017-11-20T14:41:27.198Z,94.90
2017-11-20T14:43:55.761Z,94.90
2017-11-20T14:46:24.122Z,94.60
2017-11-20T14:48:52.522Z,94.90
2017-11-20T14:51:20.935Z,95.10
2017-11-20T14:53:49.198Z,94.80
2017-11-20T14:56:17.394Z,95.20
2017-11-20T14:58:45.618Z,95.10
2017-11-20T15:01:13.994Z,95.10
2017-11-20T15:03:42.955Z,95.40
2017-11-20T15:06:11.806Z,95.40
2017-11-20T15:08:40.085Z,95.20
2017-11-20T15:11:08.434Z,95.50
2017-11-20T15:13:36.830Z,95.50
2017-11-20T15:16:05.098Z,95.70
2017-11-20T15:18:33.607Z,95.60
2017-11-20T15:21:02.210Z,95.80
2017-11-20T15:23:30.810Z,95.80
2017-11-20T15:25:59.030Z,95.70
2017-11-20T15:28:27.214Z,95.60
2017-11-20T15:30:55.421Z,95.50
2017-11-20T15:33:23.653Z,95.50
2017-11-20T15:35:52.715Z,95.80
2017-11-20T15:38:20.946Z,95.70
2017-11-20T15:40:49.571Z,95.80
2017-11-20T15:43:17.748Z,95.80
2017-11-20T15:45:45.938Z,95.80
2017-11-20T15:48:14.122Z,95.90
2017-11-20T15:50:43.063Z,95.90
2017-11-20T15:53:11.236Z,95.90
2017-11-20T15:55:39.470Z,95.90
2017-11-20T15:58:07.622Z,95.90
2017-11-20T16:00:36.508Z,95.60
2017-11-20T16:03:05.120Z,95.50
2017-11-20T16:05:33.255Z,95.50
2017-11-20T16:08:01.413Z,95.70
2017-11-20T16:10:29.558Z,95.10
2017-11-20T16:12:57.740Z,95.60
2017-11-20T16:15:25.899Z,95.80
2017-11-20T16:17:54.538Z,95.90
2017-11-20T16:20:22.706Z,95.90
2017-11-20T16:22:50.856Z,96.20
2017-11-20T16:25:19.838Z,96.40
2017-11-20T16:27:48.002Z,96.30
2017-11-20T16:30:16.171Z,95.90
2017-11-20T16:32:44.311Z,95.60
2017-11-20T16:35:12.433Z,95.50
2017-11-20T16:37:40.574Z,95.30
2017-11-20T16:40:08.773Z,95.10
2017-11-20T16:42:37.091Z,94.90
2017-11-20T16:45:05.656Z,94.40
2017-11-20T16:47:33.879Z,94.20
2017-11-20T16:50:02.055Z,93.90
2017-11-20T16:52:30.550Z,93.90
2017-11-20T16:54:59.482Z,94.30
2017-11-20T16:59:38.002Z,94.20
2017-11-20T17:02:19.824Z,94.40
2017-11-20T17:04:47.996Z,94.70
2017-11-20T17:07:16.213Z,95.00
2017-11-20T17:09:44.358Z,95.20
2017-11-20T17:12:12.502Z,94.90
2017-11-20T17:14:40.625Z,94.80
2017-11-20T17:17:08.962Z,94.90
2017-11-20T17:19:37.096Z,94.80
2017-11-20T17:22:05.310Z,95.10
2017-11-20T17:24:33.859Z,95.10
2017-11-20T17:27:02.068Z,95.30
2017-11-20T17:29:30.241Z,95.20
2017-11-20T17:31:58.390Z,95.20
2017-11-20T17:34:26.538Z,95.00
2017-11-20T17:36:55.425Z,95.10
2017-11-20T17:39:23.542Z,94.90
2017-11-20T17:41:51.709Z,95.00
2017-11-20T17:44:19.903Z,95.00
2017-11-20T17:46:48.082Z,95.40
2017-11-20T17:49:16.602Z,95.40
2017-11-20T17:51:44.735Z,95.30
2017-11-20T17:54:13.154Z,95.40
2017-11-20T17:56:41.298Z,95.40
2017-11-20T17:59:09.434Z,95.30
2017-11-20T18:01:37.847Z,95.30
2017-11-20T18:04:06.031Z,95.20
2017-11-20T18:06:34.207Z,95.00
2017-11-20T18:09:02.370Z,95.10
2017-11-20T18:11:30.529Z,95.30
2017-11-20T18:13:58.919Z,95.30
2017-11-20T18:16:27.155Z,95.50
2017-11-20T18:18:55.355Z,95.60
2017-11-20T18:21:23.830Z,95.50
2017-11-20T18:23:51.999Z,95.80
2017-11-20T18:26:20.156Z,96.00
2017-11-20T18:28:49.082Z,95.90
2017-11-20T18:31:17.270Z,95.80
2017-11-20T18:33:45.449Z,95.90
2017-11-20T18:36:13.637Z,95.90
2017-11-20T18:38:41.786Z,95.60
2017-11-20T18:41:09.941Z,95.40
2017-11-20T18:43:38.090Z,95.40
2017-11-20T18:46:06.980Z,95.10
2017-11-20T18:48:36.326Z,95.00
2017-11-20T18:51:05.031Z,95.00
2017-11-20T18:53:33.182Z,95.10
2017-11-20T18:56:01.674Z,94.90
2017-11-20T18:58:29.870Z,95.00
2017-11-20T19:03:16.316Z,95.00
2017-11-20T19:06:03.122Z,95.60
2017-11-20T19:08:41.746Z,95.70
2017-11-20T19:11:09.950Z,95.70
2017-11-20T19:13:38.484Z,95.70
2017-11-20T19:16:07.218Z,95.60
2017-11-20T19:18:35.422Z,95.60
2017-11-20T19:21:03.661Z,95.60
2017-11-20T19:23:31.919Z,95.60
2017-11-20T19:26:00.880Z,95.50
2017-11-20T19:28:29.047Z,95.40
2017-11-20T19:30:57.625Z,95.30
2017-11-20T19:33:25.794Z,95.30
2017-11-20T19:35:53.926Z,95.10
2017-11-20T19:38:22.834Z,95.10
2017-11-20T19:40:51.734Z,95.00
2017-11-20T19:43:19.963Z,95.10
2017-11-20T19:45:48.129Z,95.10
2017-11-20T19:48:16.286Z,95.10
2017-11-20T19:50:44.438Z,95.30
2017-11-20T19:53:12.568Z,95.10
2017-11-20T19:55:41.221Z,95.40
2017-11-20T19:58:09.385Z,95.40
2017-11-20T20:00:37.538Z,95.60
2017-11-20T20:03:05.705Z,95.60
2017-11-20T20:05:33.859Z,95.50
2017-11-20T20:08:02.758Z,95.60
2017-11-20T20:10:30.945Z,95.60
2017-11-20T20:12:59.174Z,95.40
